Time;durP1;ratioP1;P1;durP2;ratioP2;P2;SDS_P1;SDS_P2;PMS_P1;PMS_P2;Temp;Humidity;BMP_temperature;BMP_pressure;BME280_temperature;BME280_humidity;BME280_pressure;Samples;Min_cycle;Max_cycle;Signal;HPM_P1;HPM_P2
2022/05/24 00:01:29;;;;;;;1.90;1.42;;;19.20;95.00;;;;;;4975592;28;20033;-74
2022/05/24 00:03:56;;;;;;;3.38;1.85;;;19.20;95.40;;;;;;4975552;28;20027;-74
2022/05/24 00:06:25;;;;;;;3.45;1.50;;;19.20;94.80;;;;;;4974933;28;20031;-74
2022/05/24 00:08:51;;;;;;;2.90;1.70;;;19.20;95.00;;;;;;4975728;28;20042;-74
2022/05/24 00:11:17;;;;;;;2.08;1.63;;;19.20;94.90;;;;;;4974770;28;20483;-74
2022/05/24 00:13:43;;;;;;;2.20;2.00;;;19.20;94.50;;;;;;4975748;28;20463;-73
2022/05/24 00:16:09;;;;;;;3.40;1.55;;;19.20;94.40;;;;;;4974753;28;20113;-73
2022/05/24 00:18:35;;;;;;;2.63;1.77;;;19.20;94.70;;;;;;4974122;28;20475;-73
2022/05/24 00:21:03;;;;;;;1.83;1.60;;;19.20;94.60;;;;;;4975007;28;20078;-73
2022/05/24 00:23:30;;;;;;;2.00;1.55;;;19.20;94.00;;;;;;4975374;28;20055;-74
2022/05/24 00:26:02;;;;;;;1.98;1.88;;;19.20;94.40;;;;;;4975154;28;20042;-74
2022/05/24 00:28:29;;;;;;;2.05;1.40;;;19.20;94.50;;;;;;4979602;28;20026;-73
2022/05/24 00:30:56;;;;;;;1.65;1.55;;;19.20;94.40;;;;;;4994342;28;20393;-73
2022/05/24 00:33:21;;;;;;;3.00;2.15;;;19.20;94.70;;;;;;4993933;28;20659;-74
2022/05/24 00:35:48;;;;;;;2.72;1.55;;;19.20;94.70;;;;;;4994666;28;20026;-73
2022/05/24 00:44:26;;;;;;;2.22;1.50;;;19.20;95.20;;;;;;4952815;29;20113;-73
2022/05/24 00:47:16;;;;;;;2.47;1.42;;;19.10;95.30;;;;;;4956518;29;20364;-73
2022/05/24 00:49:49;;;;;;;2.70;1.55;;;19.10;95.40;;;;;;4955914;29;20027;-73
2022/05/24 00:52:22;;;;;;;2.28;1.73;;;19.10;96.00;;;;;;4955810;29;20102;-73
2022/05/24 00:54:48;;;;;;;1.50;1.40;;;19.10;96.20;;;;;;4955418;28;20038;-72
2022/05/24 00:57:25;;;;;;;2.63;2.05;;;19.10;96.60;;;;;;4955472;29;20031;-73
2022/05/24 01:00:11;;;;;;;2.40;1.67;;;19.10;97.10;;;;;;4955910;29;20031;-74
2022/05/24 01:02:38;;;;;;;3.63;1.80;;;19.10;96.80;;;;;;4954911;29;20039;-74
2022/05/24 01:05:05;;;;;;;2.55;1.75;;;19.10;96.80;;;;;;4955417;29;20024;-74
2022/05/24 01:07:31;;;;;;;2.42;1.77;;;19.10;97.00;;;;;;4955636;29;20099;-73
2022/05/24 01:10:02;;;;;;;2.58;1.77;;;19.10;97.40;;;;;;4955737;29;20031;-73
2022/05/24 01:12:34;;;;;;;1.70;1.58;;;19.10;97.30;;;;;;4955659;29;20027;-73
2022/05/24 01:15:03;;;;;;;3.28;1.60;;;19.10;97.40;;;;;;4955644;29;20035;-73
2022/05/24 01:17:29;;;;;;;2.38;1.85;;;19.10;97.70;;;;;;4955297;29;20038;-73
2022/05/24 01:19:55;;;;;;;2.42;1.70;;;19.10;97.70;;;;;;4955735;29;20035;-73
2022/05/24 01:22:58;;;;;;;3.55;1.90;;;19.10;97.90;;;;;;4954864;29;20039;-74
2022/05/24 01:25:42;;;;;;;3.00;1.92;;;19.10;98.10;;;;;;4954746;29;20031;-74
2022/05/24 01:28:21;;;;;;;2.17;1.85;;;19.10;98.20;;;;;;4954810;29;20082;-75
2022/05/24 01:30:48;;;;;;;1.70;1.60;;;19.10;98.20;;;;;;4955093;29;20031;-74
2022/05/24 01:36:09;;;;;;;1.83;1.40;;;19.10;98.10;;;;;;4955110;29;20054;-74
2022/05/24 01:38:37;;;;;;;2.00;1.42;;;19.10;98.10;;;;;;4954925;29;20371;-74
2022/05/24 01:41:03;;;;;;;2.03;1.67;;;19.10;98.30;;;;;;4954766;29;20563;-74
2022/05/24 01:43:29;;;;;;;2.78;1.63;;;19.10;98.10;;;;;;4954242;29;20126;-74
2022/05/24 01:46:05;;;;;;;2.00;1.55;;;19.20;97.80;;;;;;4954993;29;20027;-73
2022/05/24 01:48:36;;;;;;;4.63;1.67;;;19.10;97.70;;;;;;4954722;29;20034;-74
2022/05/24 01:51:04;;;;;;;4.60;1.95;;;19.10;97.90;;;;;;4955321;29;20054;-74
2022/05/24 01:53:36;;;;;;;2.42;1.50;;;19.10;98.10;;;;;;4954122;29;20023;-74
2022/05/24 01:56:07;;;;;;;2.60;1.80;;;19.10;98.20;;;;;;4954918;29;20028;-73
2022/05/24 01:58:36;;;;;;;3.45;1.65;;;19.00;98.30;;;;;;4954539;29;20055;-73
2022/05/24 02:01:29;;;;;;;2.25;1.48;;;19.00;98.40;;;;;;4954675;29;20063;-73
2022/05/24 02:03:55;;;;;;;1.85;1.70;;;19.00;98.70;;;;;;4954948;29;20038;-73
2022/05/24 02:06:26;;;;;;;2.42;1.63;;;19.00;98.50;;;;;;4953781;28;20031;-74
2022/05/24 02:08:54;;;;;;;2.15;1.70;;;19.00;98.60;;;;;;4954705;29;20031;-74
2022/05/24 02:11:25;;;;;;;2.05;1.50;;;19.00;98.50;;;;;;4953873;29;20023;-74
2022/05/24 02:13:59;;;;;;;1.77;1.63;;;19.00;98.60;;;;;;4954610;29;20023;-74
2022/05/24 02:16:28;;;;;;;2.80;1.63;;;19.00;98.60;;;;;;4953668;29;20027;-74
2022/05/24 02:18:54;;;;;;;2.00;1.60;;;18.90;98.60;;;;;;4954468;29;20125;-74
2022/05/24 02:21:21;;;;;;;3.05;1.70;;;18.90;98.60;;;;;;4953689;29;20031;-74
2022/05/24 02:23:49;;;;;;;1.70;1.60;;;18.90;98.90;;;;;;4953993;29;20099;-74
2022/05/24 02:26:17;;;;;;;3.72;1.90;;;18.90;99.30;;;;;;4953852;29;20031;-74
2022/05/24 02:28:43;;;;;;;2.45;1.77;;;18.90;99.80;;;;;;4954493;29;20095;-74
2022/05/24 02:31:13;;;;;;;2.88;1.67;;;18.80;99.90;;;;;;4954242;29;20479;-75
2022/05/24 02:33:38;;;;;;;2.20;1.85;;;18.80;99.90;;;;;;4954205;29;20039;-73
2022/05/24 02:36:05;;;;;;;4.95;2.58;;;18.80;99.90;;;;;;4936847;29;20063;-73
2022/05/24 02:38:31;;;;;;;1.92;1.70;;;18.70;99.90;;;;;;4953506;29;20041;-74
2022/05/24 02:43:42;;;;;;;2.40;1.90;;;18.70;99.90;;;;;;4953264;28;20097;-74
2022/05/24 02:46:08;;;;;;;2.67;2.13;;;18.60;99.90;;;;;;4954055;29;20371;-73
2022/05/24 02:48:38;;;;;;;2.75;1.75;;;18.60;99.90;;;;;;4953576;29;20531;-74
2022/05/24 02:51:13;;;;;;;2.25;2.03;;;18.50;99.90;;;;;;4954318;29;20063;-73
2022/05/24 02:53:40;;;;;;;2.83;1.90;;;18.50;99.90;;;;;;4936698;29;20479;-73
2022/05/24 02:56:07;;;;;;;3.30;2.00;;;18.50;99.90;;;;;;4953695;29;20023;-72
2022/05/24 02:58:33;;;;;;;2.13;1.92;;;18.50;99.90;;;;;;4953442;29;20028;-73
2022/05/24 03:00:59;;;;;;;2.30;2.10;;;18.40;99.90;;;;;;4953668;29;20035;-73
2022/05/24 03:03:25;;;;;;;2.80;1.92;;;18.40;99.90;;;;;;4953210;29;20028;-73
2022/05/24 03:05:50;;;;;;;3.90;1.90;;;18.30;99.90;;;;;;4954129;29;20035;-74
2022/05/24 03:11:01;;;;;;;2.30;1.80;;;18.30;99.90;;;;;;4953751;29;20086;-74
2022/05/24 03:16:13;;;;;;;2.53;1.92;;;18.20;99.90;;;;;;4953622;29;20090;-73
2022/05/24 03:18:40;;;;;;;3.72;1.85;;;18.20;99.90;;;;;;4955093;28;20027;-74
2022/05/24 03:21:06;;;;;;;2.50;1.95;;;18.20;99.90;;;;;;4957653;29;20062;-74
2022/05/24 03:23:32;;;;;;;2.88;1.80;;;18.20;99.90;;;;;;4956990;29;20028;-74
2022/05/24 03:25:58;;;;;;;2.47;1.80;;;18.20;99.90;;;;;;4957432;29;20027;-73
2022/05/24 03:28:23;;;;;;;3.28;2.03;;;18.20;99.90;;;;;;4956719;29;20041;-72
2022/05/24 03:30:49;;;;;;;4.28;2.42;;;18.20;99.90;;;;;;4957385;29;20165;-73
2022/05/24 03:33:15;;;;;;;2.22;1.73;;;18.20;99.90;;;;;;4956879;29;20023;-75
2022/05/24 03:35:41;;;;;;;3.70;2.10;;;18.20;99.90;;;;;;4957061;29;20034;-74
2022/05/24 03:38:07;;;;;;;2.53;1.63;;;18.20;99.90;;;;;;4957287;29;20035;-74
2022/05/24 03:40:33;;;;;;;3.58;2.22;;;18.20;99.90;;;;;;4957053;29;20035;-73
2022/05/24 03:42:59;;;;;;;4.22;2.22;;;18.20;99.90;;;;;;4956985;29;20081;-73
2022/05/24 03:45:26;;;;;;;2.55;2.03;;;18.20;99.90;;;;;;4956708;29;20515;-74
2022/05/24 03:47:52;;;;;;;2.72;1.63;;;18.20;99.90;;;;;;4956844;29;20118;-74
2022/05/24 03:50:19;;;;;;;2.45;2.00;;;18.20;99.90;;;;;;4956721;29;20038;-75
2022/05/24 03:52:45;;;;;;;3.28;2.20;;;18.20;99.90;;;;;;4957177;29;20110;-74
2022/05/24 03:55:10;;;;;;;2.17;1.90;;;18.20;99.90;;;;;;4957016;29;20102;-74
2022/05/24 04:00:22;;;;;;;2.70;2.20;;;18.30;99.90;;;;;;4956217;29;20045;-73
2022/05/24 04:02:48;;;;;;;2.83;1.98;;;18.20;99.90;;;;;;4956400;29;20035;-74
2022/05/24 04:05:14;;;;;;;2.47;1.73;;;18.30;99.90;;;;;;4960849;28;20039;-74
2022/05/24 04:07:40;;;;;;;3.58;2.22;;;18.30;99.90;;;;;;4962290;28;20458;-74
2022/05/24 04:10:09;;;;;;;3.25;2.20;;;18.20;99.90;;;;;;4961307;28;20039;-74
2022/05/24 04:12:34;;;;;;;2.30;1.90;;;18.20;99.90;;;;;;4964309;28;20403;-74
2022/05/24 04:15:00;;;;;;;3.13;1.73;;;18.20;99.90;;;;;;4964912;28;20094;-72
2022/05/24 04:17:26;;;;;;;2.63;1.80;;;18.20;99.90;;;;;;4969089;28;20073;-73
2022/05/24 04:19:52;;;;;;;3.78;2.38;;;18.20;99.90;;;;;;4963257;28;20023;-74
2022/05/24 04:22:18;;;;;;;4.43;1.80;;;18.20;99.90;;;;;;4958556;28;20037;-73
2022/05/24 04:24:43;;;;;;;1.70;1.33;;;18.20;99.90;;;;;;4961059;28;20020;-74
2022/05/24 04:27:09;;;;;;;1.92;1.70;;;18.20;99.90;;;;;;4962669;28;20026;-73
2022/05/24 04:29:39;;;;;;;1.98;1.70;;;18.20;99.90;;;;;;4964521;28;20034;-74
2022/05/24 04:32:05;;;;;;;2.00;1.50;;;18.20;99.90;;;;;;4962335;28;20023;-74
2022/05/24 04:34:30;;;;;;;1.52;1.42;;;18.20;99.90;;;;;;4968988;28;20483;-74
2022/05/24 04:36:56;;;;;;;3.42;1.80;;;18.30;99.90;;;;;;4960711;28;20031;-74
2022/05/24 04:39:21;;;;;;;2.13;1.45;;;18.30;99.40;;;;;;4955396;29;20027;-74
2022/05/24 04:44:31;;;;;;;1.50;1.40;;;18.30;99.50;;;;;;4955534;29;20519;-74
2022/05/24 04:47:09;;;;;;;5.05;1.98;;;18.30;98.90;;;;;;4955678;29;20059;-73
2022/05/24 04:49:39;;;;;;;2.15;1.48;;;18.40;98.50;;;;;;4955288;28;20447;-74
2022/05/24 04:52:06;;;;;;;3.33;1.55;;;18.40;97.60;;;;;;4975075;28;20057;-75
2022/05/24 04:54:32;;;;;;;2.08;1.35;;;18.40;97.10;;;;;;4954996;28;20114;-74
2022/05/24 04:56:58;;;;;;;1.52;1.42;;;18.40;97.10;;;;;;4955956;29;20049;-74
2022/05/24 04:59:24;;;;;;;2.00;1.80;;;18.40;97.30;;;;;;4954885;29;20058;-73
2022/05/24 05:01:51;;;;;;;1.95;1.55;;;18.40;97.40;;;;;;4955335;29;20063;-73
2022/05/24 05:04:18;;;;;;;2.60;1.70;;;18.40;97.50;;;;;;4938262;29;20031;-73
2022/05/24 05:06:44;;;;;;;2.30;1.80;;;18.50;96.60;;;;;;4954971;29;20102;-73
2022/05/24 05:09:11;;;;;;;1.75;1.65;;;18.50;95.40;;;;;;4937704;29;20051;-75
2022/05/24 05:11:38;;;;;;;2.35;1.80;;;18.40;95.40;;;;;;4954523;29;20111;-73
2022/05/24 05:14:04;;;;;;;1.88;1.35;;;18.40;95.50;;;;;;4937916;29;20035;-74
2022/05/24 05:16:30;;;;;;;2.53;1.67;;;18.50;95.50;;;;;;4954741;29;20023;-75
2022/05/24 05:18:56;;;;;;;2.72;1.38;;;18.50;94.40;;;;;;4955228;29;20038;-74
2022/05/24 05:21:21;;;;;;;2.00;1.52;;;18.50;94.40;;;;;;4954922;29;20031;-74
2022/05/24 05:23:47;;;;;;;1.95;1.50;;;18.60;93.80;;;;;;4954682;29;20027;-74
2022/05/24 05:26:14;;;;;;;2.50;1.70;;;18.60;92.50;;;;;;4955349;29;20104;-73
2022/05/24 05:28:41;;;;;;;1.48;1.10;;;18.70;92.20;;;;;;4955026;29;20039;-74
2022/05/24 05:31:16;;;;;;;1.27;1.05;;;18.70;92.10;;;;;;4955428;29;20375;-74
2022/05/24 05:33:43;;;;;;;1.65;1.52;;;18.70;92.20;;;;;;4953350;29;20067;-74
2022/05/24 05:36:09;;;;;;;2.15;1.48;;;18.70;91.70;;;;;;4955158;29;20488;-74
2022/05/24 05:38:35;;;;;;;1.48;1.20;;;18.80;91.70;;;;;;4954731;29;20041;-74
2022/05/24 05:41:01;;;;;;;2.03;1.40;;;18.80;91.20;;;;;;4954818;28;20383;-73
2022/05/24 05:43:27;;;;;;;1.40;1.30;;;19.00;91.30;;;;;;4954581;29;20055;-74
2022/05/24 05:45:58;;;;;;;1.40;1.30;;;18.90;90.40;;;;;;4955302;29;20364;-74
2022/05/24 05:48:23;;;;;;;;;;;18.90;90.60;;;;;;4955355;29;20038;-74
2022/05/24 05:50:49;;;;;;;1.70;1.60;;;18.90;90.40;;;;;;4955087;29;19906;-74
2022/05/24 05:53:18;;;;;;;2.30;1.88;;;19.00;91.30;;;;;;4955123;29;20035;-73
2022/05/24 05:55:45;;;;;;;1.50;1.40;;;19.10;90.20;;;;;;4954615;29;20043;-73
2022/05/24 05:58:11;;;;;;;2.05;1.33;;;19.00;90.40;;;;;;4954700;29;20031;-73
2022/05/24 06:00:38;;;;;;;2.15;1.85;;;19.00;90.60;;;;;;4954566;29;20035;-74
2022/05/24 06:03:04;;;;;;;1.67;1.50;;;19.00;91.20;;;;;;4953455;29;20035;-73
2022/05/24 06:05:29;;;;;;;4.22;1.50;;;19.00;91.20;;;;;;4954439;29;20034;-73
2022/05/24 06:07:56;;;;;;;2.20;1.80;;;19.00;90.90;;;;;;4954696;29;20031;-74
2022/05/24 06:10:23;;;;;;;1.90;1.70;;;19.00;91.10;;;;;;4954502;29;20074;-74
2022/05/24 06:12:51;;;;;;;2.50;1.92;;;19.00;91.50;;;;;;4954044;29;20023;-74
2022/05/24 06:15:17;;;;;;;3.40;1.92;;;19.00;91.80;;;;;;4954542;29;20031;-73
2022/05/24 06:17:49;;;;;;;1.80;1.50;;;19.10;91.00;;;;;;4953801;29;20431;-74
2022/05/24 06:20:17;;;;;;;2.15;1.70;;;19.80;94.00;;;;;;4954070;29;20043;-73
2022/05/24 06:22:43;;;;;;;3.70;1.70;;;20.00;89.30;;;;;;4953094;29;20078;-73
2022/05/24 06:25:09;;;;;;;2.85;1.60;;;20.00;87.30;;;;;;4954408;29;20023;-73
2022/05/24 06:27:35;;;;;;;3.72;2.28;;;20.10;87.10;;;;;;4953719;29;20034;-73
2022/05/24 06:30:01;;;;;;;1.88;1.63;;;20.10;86.90;;;;;;4954042;29;20031;-73
2022/05/24 06:32:27;;;;;;;1.55;1.25;;;20.00;86.80;;;;;;4954056;29;20058;-73
2022/05/24 06:34:53;;;;;;;1.88;1.70;;;19.90;87.50;;;;;;4954051;29;20035;-74
2022/05/24 06:37:22;;;;;;;2.03;1.70;;;19.90;88.00;;;;;;4953628;29;20027;-74
2022/05/24 06:39:48;;;;;;;2.35;1.70;;;19.80;89.60;;;;;;4953550;29;20047;-74
2022/05/24 06:42:14;;;;;;;2.00;1.83;;;19.80;89.90;;;;;;4954017;29;20028;-73
2022/05/24 06:44:40;;;;;;;3.15;1.50;;;19.70;90.40;;;;;;4936023;29;20384;-74
2022/05/24 06:47:06;;;;;;;2.03;1.80;;;19.60;90.50;;;;;;4953568;29;20038;-73
2022/05/24 06:49:32;;;;;;;2.97;1.80;;;19.60;90.70;;;;;;4953255;29;20360;-74
2022/05/24 06:51:58;;;;;;;2.25;1.75;;;19.50;91.50;;;;;;4953616;29;20110;-73
2022/05/24 06:54:24;;;;;;;3.90;1.95;;;19.60;92.70;;;;;;4953161;29;20460;-74
2022/05/24 06:56:50;;;;;;;1.75;1.58;;;19.90;93.00;;;;;;4952894;29;20050;-74
2022/05/24 07:04:44;;;;;;;2.38;1.60;;;20.60;87.00;;;;;;4953330;29;20058;-74
2022/05/24 07:07:10;;;;;;;2.20;1.75;;;20.60;87.70;;;;;;4953818;29;20452;-74
2022/05/24 07:09:37;;;;;;;1.60;1.40;;;20.70;87.40;;;;;;4952740;29;20099;-74
2022/05/24 07:12:04;;;;;;;2.17;1.90;;;20.70;86.40;;;;;;4953328;29;20472;-74
2022/05/24 07:14:33;;;;;;;1.63;1.40;;;20.70;85.50;;;;;;4954002;29;20483;-74
2022/05/24 07:16:58;;;;;;;2.15;1.83;;;20.70;85.30;;;;;;4953836;29;20031;-73
2022/05/24 07:19:25;;;;;;;1.70;1.60;;;20.70;85.00;;;;;;4953431;29;20038;-74
2022/05/24 07:21:51;;;;;;;1.48;1.33;;;20.70;85.30;;;;;;4953490;29;20098;-74
2022/05/24 07:24:17;;;;;;;3.28;1.60;;;20.60;87.10;;;;;;4953335;29;20110;-74
2022/05/24 07:26:43;;;;;;;2.33;1.88;;;20.80;87.50;;;;;;4953487;29;20134;-74
2022/05/24 07:29:09;;;;;;;1.80;1.70;;;20.90;85.40;;;;;;4953929;29;20507;-73
2022/05/24 07:31:37;;;;;;;2.47;1.42;;;21.20;84.10;;;;;;4953321;29;20119;-74
2022/05/24 07:34:03;;;;;;;3.85;1.42;;;21.40;83.90;;;;;;4953659;29;20050;-74
2022/05/24 07:36:29;;;;;;;2.00;1.67;;;21.80;84.50;;;;;;4953314;29;20437;-74
2022/05/24 07:38:55;;;;;;;1.75;1.40;;;22.30;82.00;;;;;;4952654;29;20480;-74
2022/05/24 07:46:49;;;;;;;1.75;1.58;;;24.30;69.30;;;;;;4953386;29;20042;-75
2022/05/24 07:49:15;;;;;;;1.45;1.35;;;24.80;66.80;;;;;;4953660;29;20371;-74
2022/05/24 07:51:41;;;;;;;1.45;1.35;;;25.30;63.10;;;;;;4953529;29;20035;-75
2022/05/24 07:54:07;;;;;;;2.60;1.55;;;25.60;61.80;;;;;;4953754;29;20028;-75
2022/05/24 07:56:33;;;;;;;1.85;1.70;;;26.10;61.00;;;;;;4953877;29;20030;-75
2022/05/24 07:58:58;;;;;;;2.50;1.80;;;26.50;59.70;;;;;;4953548;29;20045;-75
2022/05/24 08:01:24;;;;;;;1.90;1.30;;;26.90;58.20;;;;;;4953718;29;20390;-75
2022/05/24 08:03:50;;;;;;;3.90;1.50;;;27.30;57.10;;;;;;4953696;28;20475;-75
2022/05/24 08:06:17;;;;;;;2.88;1.77;;;27.80;55.80;;;;;;4956877;29;20028;-75
2022/05/24 08:08:43;;;;;;;4.22;1.55;;;28.10;53.60;;;;;;4956449;29;20044;-74
2022/05/24 08:11:09;;;;;;;2.50;1.70;;;28.40;53.10;;;;;;4956759;29;20031;-75
2022/05/24 08:13:35;;;;;;;1.63;1.35;;;28.80;53.10;;;;;;4956047;29;20031;-76
2022/05/24 08:16:02;;;;;;;2.33;1.48;;;29.10;51.90;;;;;;4956364;29;20526;-75
2022/05/24 08:18:28;;;;;;;2.00;1.60;;;29.40;50.80;;;;;;4956698;29;20471;-75
2022/05/24 08:20:55;;;;;;;2.45;1.35;;;29.40;50.00;;;;;;4956387;29;20039;-75
2022/05/24 08:23:23;;;;;;;2.03;1.25;;;29.30;50.20;;;;;;4956864;29;20024;-75
2022/05/24 08:25:49;;;;;;;2.38;1.33;;;29.20;49.60;;;;;;4956348;29;20023;-75
2022/05/24 08:28:15;;;;;;;1.38;1.27;;;28.80;50.00;;;;;;4956721;29;20035;-74
2022/05/24 08:30:42;;;;;;;1.92;1.33;;;28.30;50.80;;;;;;4956203;29;20062;-75
2022/05/24 08:33:11;;;;;;;1.45;1.30;;;28.00;51.70;;;;;;4954983;29;20063;-75
2022/05/24 08:35:37;;;;;;;1.38;1.27;;;27.80;52.00;;;;;;4956139;29;20106;-76
2022/05/24 08:38:04;;;;;;;1.42;1.33;;;27.90;52.70;;;;;;4955228;29;20429;-75
2022/05/24 08:40:31;;;;;;;1.77;1.25;;;27.90;52.60;;;;;;4956737;29;20111;-74
2022/05/24 08:43:29;;;;;;;1.63;1.52;;;27.80;53.60;;;;;;4938595;29;20593;-74
2022/05/24 08:48:53;;;;;;;2.08;1.25;;;27.60;53.00;;;;;;4955673;29;20511;-75
2022/05/24 08:51:28;;;;;;;1.45;1.20;;;27.40;53.60;;;;;;4956501;29;20102;-75
2022/05/24 08:53:57;;;;;;;2.25;1.33;;;27.30;54.30;;;;;;4955879;29;20031;-74
2022/05/24 08:56:31;;;;;;;2.97;2.07;;;27.10;53.30;;;;;;4956063;29;20031;-74
2022/05/24 08:59:16;;;;;;;2.45;1.60;;;26.90;54.60;;;;;;4955492;29;20289;-74
2022/05/24 09:01:44;;;;;;;2.13;1.83;;;26.70;55.30;;;;;;4955600;29;20034;-74
2022/05/24 09:04:11;;;;;;;5.22;1.90;;;26.50;56.30;;;;;;4938824;29;20376;-75
2022/05/24 09:06:45;;;;;;;4.82;2.00;;;26.40;56.00;;;;;;4955486;29;20147;-74
2022/05/24 09:09:29;;;;;;;2.05;1.75;;;26.30;56.90;;;;;;4955852;29;20127;-74
2022/05/24 09:12:00;;;;;;;3.58;1.85;;;26.10;56.70;;;;;;4955493;29;20035;-74
2022/05/24 09:14:44;;;;;;;3.05;1.85;;;25.90;57.40;;;;;;4955933;29;20240;-75
2022/05/24 09:17:37;;;;;;;1.90;1.58;;;25.80;57.70;;;;;;4954801;28;20024;-75
2022/05/24 09:20:11;;;;;;;3.50;1.58;;;25.70;58.90;;;;;;4955411;29;20031;-74
2022/05/24 09:22:37;;;;;;;2.20;1.90;;;25.60;58.60;;;;;;4955952;29;20094;-73
2022/05/24 09:25:05;;;;;;;2.63;1.85;;;25.50;58.90;;;;;;4954870;29;20027;-74
2022/05/24 09:27:51;;;;;;;2.38;1.63;;;25.50;59.90;;;;;;4955619;29;20038;-73
2022/05/24 09:30:25;;;;;;;2.83;1.70;;;25.50;59.30;;;;;;4954249;29;20027;-74
2022/05/24 09:32:51;;;;;;;2.75;1.90;;;25.30;59.80;;;;;;4955167;29;20028;-74
2022/05/24 09:35:18;;;;;;;1.67;1.50;;;25.30;60.50;;;;;;4955271;29;20106;-74
2022/05/24 09:38:04;;;;;;;3.38;1.60;;;25.30;60.70;;;;;;4954819;29;20035;-74
2022/05/24 09:40:51;;;;;;;2.60;1.75;;;25.30;60.70;;;;;;4955346;29;20372;-74
2022/05/24 09:43:27;;;;;;;2.47;1.85;;;25.40;60.90;;;;;;4955153;29;20051;-75
2022/05/24 09:46:04;;;;;;;4.32;1.50;;;25.30;60.00;;;;;;4955070;29;20028;-74
2022/05/24 09:48:34;;;;;;;2.10;1.60;;;25.20;60.50;;;;;;4955494;29;20027;-75
2022/05/24 09:51:03;;;;;;;2.63;1.77;;;25.20;60.80;;;;;;4955170;29;20085;-75
2022/05/24 09:53:32;;;;;;;2.33;1.80;;;25.10;61.80;;;;;;4955258;29;20033;-75
2022/05/24 09:56:05;;;;;;;1.98;1.77;;;25.10;61.60;;;;;;4954683;29;20034;-74
2022/05/24 09:58:34;;;;;;;2.33;1.73;;;25.00;61.70;;;;;;4954946;29;20035;-74
2022/05/24 10:01:11;;;;;;;1.83;1.58;;;25.00;61.30;;;;;;4954642;29;20431;-74
2022/05/24 10:03:46;;;;;;;2.47;1.90;;;24.90;61.60;;;;;;4954982;29;20033;-73
2022/05/24 10:06:30;;;;;;;2.33;1.73;;;24.90;62.50;;;;;;4955158;29;20023;-74
2022/05/24 10:08:58;;;;;;;1.92;1.67;;;24.90;62.90;;;;;;4937130;29;20110;-74
2022/05/24 10:11:33;;;;;;;1.83;1.70;;;24.90;63.50;;;;;;4954542;29;20451;-74
2022/05/24 10:14:39;;;;;;;2.05;1.63;;;24.90;62.90;;;;;;4954524;29;20053;-74
2022/05/24 10:17:35;;;;;;;1.52;1.40;;;25.00;62.90;;;;;;4884936;29;20371;-75
2022/05/24 10:20:49;;;;;;;2.75;1.70;;;25.10;62.40;;;;;;4954014;29;20078;-74
2022/05/24 10:23:41;;;;;;;3.10;1.42;;;25.10;61.10;;;;;;4954684;29;20114;-74
2022/05/24 10:26:15;;;;;;;3.50;2.22;;;25.10;61.20;;;;;;4937042;29;20031;-74
2022/05/24 10:28:46;;;;;;;3.10;2.20;;;25.10;61.20;;;;;;4954548;28;20031;-74
2022/05/24 10:31:38;;;;;;;2.95;1.98;;;25.00;61.20;;;;;;4954442;29;20526;-75
2022/05/24 10:40:07;;;;;;;2.35;1.70;;;24.80;60.90;;;;;;4953697;29;20046;-75
2022/05/24 10:42:45;;;;;;;3.28;1.92;;;24.80;61.70;;;;;;4954003;28;20432;-74
2022/05/24 10:45:25;;;;;;;3.63;1.65;;;24.70;61.90;;;;;;4954399;29;20027;-73
2022/05/24 10:48:04;;;;;;;2.20;1.80;;;24.50;62.50;;;;;;4953522;29;20456;-75
2022/05/24 10:50:43;;;;;;;1.35;1.25;;;24.40;63.10;;;;;;4954348;29;20023;-74
2022/05/24 10:53:09;;;;;;;2.28;1.20;;;24.40;64.20;;;;;;4953800;29;20027;-74
2022/05/24 10:55:40;;;;;;;1.30;1.20;;;24.50;64.80;;;;;;4953851;29;20081;-73
2022/05/24 10:58:11;;;;;;;2.45;1.45;;;24.50;64.00;;;;;;4954029;29;20488;-75
2022/05/24 11:00:47;;;;;;;4.35;2.00;;;24.60;63.30;;;;;;4954369;29;20020;-75
2022/05/24 11:03:19;;;;;;;10.52;1.75;;;24.50;63.20;;;;;;4954363;29;20445;-74
2022/05/24 11:05:52;;;;;;;1.70;1.60;;;24.60;63.10;;;;;;4953740;29;20038;-74
2022/05/24 11:08:49;;;;;;;1.88;1.65;;;24.60;63.20;;;;;;4953572;29;20035;-75
2022/05/24 11:11:35;;;;;;;2.53;1.65;;;24.60;62.70;;;;;;4954313;29;20031;-75
2022/05/24 11:14:45;;;;;;;1.45;1.20;;;24.70;62.80;;;;;;4954016;29;20031;-74
2022/05/24 11:17:12;;;;;;;2.72;1.60;;;24.70;62.80;;;;;;4954092;29;20024;-73
2022/05/24 11:19:45;;;;;;;2.15;1.40;;;24.70;62.10;;;;;;4953991;29;20036;-75
2022/05/24 11:22:20;;;;;;;1.60;1.50;;;24.60;62.10;;;;;;4953510;29;20408;-74
2022/05/24 11:25:04;;;;;;;2.30;1.42;;;24.50;62.10;;;;;;4954445;29;20452;-74
2022/05/24 11:27:39;;;;;;;1.55;1.45;;;24.50;62.40;;;;;;4953751;29;20423;-74
2022/05/24 11:30:16;;;;;;;1.83;1.58;;;24.50;63.20;;;;;;4953752;29;20030;-74
2022/05/24 11:33:09;;;;;;;1.70;1.60;;;24.50;63.30;;;;;;4936507;29;20034;-74
2022/05/24 11:35:45;;;;;;;2.28;1.52;;;24.60;63.00;;;;;;4953962;29;20489;-74
2022/05/24 11:38:14;;;;;;;1.15;1.00;;;24.60;62.10;;;;;;4953487;28;20041;-73
2022/05/24 11:41:05;;;;;;;2.35;1.63;;;24.70;63.30;;;;;;4957238;29;20106;-74
2022/05/24 11:43:36;;;;;;;;;;;24.70;63.20;;;;;;4957754;29;20051;-74
2022/05/24 11:46:08;;;;;;;1.40;1.30;;;24.70;63.20;;;;;;4957113;29;19965;-74
2022/05/24 11:48:51;;;;;;;1.60;1.33;;;24.70;62.80;;;;;;4940063;29;20023;-75
2022/05/24 11:51:32;;;;;;;2.35;1.50;;;24.80;62.60;;;;;;4956996;29;20337;-75
2022/05/24 11:53:59;;;;;;;;;;;24.70;62.70;;;;;;4957423;29;20038;-75
2022/05/24 11:56:25;;;;;;;1.52;1.30;;;24.70;62.70;;;;;;4957255;29;19910;-74
2022/05/24 11:59:04;;;;;;;1.95;1.48;;;24.60;62.10;;;;;;4956843;29;20136;-75
2022/05/24 12:01:45;;;;;;;3.35;1.75;;;24.50;62.70;;;;;;4957500;29;20039;-74
2022/05/24 12:09:59;;;;;;;1.83;1.25;;;24.30;63.70;;;;;;4956910;29;20118;-74
2022/05/24 12:12:37;;;;;;;3.25;1.50;;;24.20;63.80;;;;;;4956871;29;20039;-75
2022/05/24 12:15:08;;;;;;;1.45;1.23;;;24.20;64.00;;;;;;4956748;29;20039;-75
2022/05/24 12:17:34;;;;;;;2.33;1.20;;;24.20;64.30;;;;;;4956796;29;20031;-75
2022/05/24 12:20:00;;;;;;;2.97;1.80;;;24.00;64.30;;;;;;4956215;29;20039;-75
2022/05/24 12:22:30;;;;;;;1.80;1.58;;;24.00;64.80;;;;;;4956846;29;20035;-75
2022/05/24 12:24:59;;;;;;;4.20;1.80;;;24.00;65.20;;;;;;4956466;29;20383;-75
2022/05/24 12:27:31;;;;;;;4.38;1.98;;;23.90;65.40;;;;;;4956796;29;20042;-75
2022/05/24 12:30:18;;;;;;;2.63;1.90;;;23.90;65.70;;;;;;4955863;29;20480;-74
2022/05/24 12:32:44;;;;;;;3.13;1.80;;;23.70;66.10;;;;;;4956286;29;20027;-74
2022/05/24 12:35:13;;;;;;;3.25;1.90;;;23.70;66.90;;;;;;4955938;29;20031;-75
2022/05/24 12:37:45;;;;;;;2.17;1.70;;;23.70;66.50;;;;;;4956254;29;20054;-74
2022/05/24 12:40:13;;;;;;;2.10;1.70;;;23.60;66.80;;;;;;4956089;29;20043;-74
2022/05/24 12:42:43;;;;;;;3.30;1.83;;;23.60;67.20;;;;;;4955915;29;20051;-75
2022/05/24 12:45:12;;;;;;;2.33;1.83;;;23.50;67.70;;;;;;4955611;29;20038;-75
2022/05/24 12:47:38;;;;;;;2.72;1.63;;;23.50;67.80;;;;;;4956399;29;20031;-75
2022/05/24 12:50:04;;;;;;;2.40;1.90;;;23.40;68.00;;;;;;4955275;28;20031;-75
2022/05/24 12:52:37;;;;;;;3.67;1.55;;;23.40;68.40;;;;;;4955540;29;20023;-75
2022/05/24 12:55:06;;;;;;;2.20;2.00;;;23.40;68.60;;;;;;4955892;29;20031;-74
2022/05/24 12:57:44;;;;;;;3.80;2.00;;;23.40;68.80;;;;;;4956001;29;20032;-75
2022/05/24 13:00:14;;;;;;;2.70;2.10;;;23.40;69.30;;;;;;4955680;29;20499;-75
2022/05/24 13:02:48;;;;;;;2.17;1.98;;;23.40;69.00;;;;;;4956091;29;20023;-74
2022/05/24 13:05:35;;;;;;;1.98;1.65;;;23.40;68.80;;;;;;4955374;29;20069;-74
2022/05/24 13:08:01;;;;;;;2.03;1.67;;;23.30;69.20;;;;;;4955525;29;20078;-74
2022/05/24 13:10:33;;;;;;;2.50;2.03;;;23.30;69.60;;;;;;4955531;29;20031;-74
2022/05/24 13:13:07;;;;;;;2.38;2.17;;;23.30;69.50;;;;;;4955431;29;20035;-75
2022/05/24 13:15:42;;;;;;;4.50;2.10;;;23.30;69.60;;;;;;4938634;29;20110;-75
2022/05/24 13:18:16;;;;;;;2.45;1.98;;;23.30;70.20;;;;;;4955433;29;20411;-75
2022/05/24 13:20:48;;;;;;;3.35;1.92;;;23.30;70.30;;;;;;4956047;29;20028;-75
2022/05/24 13:23:23;;;;;;;2.13;1.67;;;23.30;69.40;;;;;;4954926;29;20491;-75
2022/05/24 13:25:50;;;;;;;2.85;1.98;;;23.20;70.00;;;;;;4955430;29;20023;-75
2022/05/24 13:28:34;;;;;;;4.15;1.92;;;23.20;69.90;;;;;;4955062;29;20074;-75
2022/05/24 13:33:58;;;;;;;4.25;1.95;;;23.20;69.80;;;;;;4955189;29;20181;-74
2022/05/24 13:36:40;;;;;;;1.80;1.52;;;23.20;69.50;;;;;;4955181;29;20031;-75
2022/05/24 13:39:14;;;;;;;2.83;1.67;;;23.20;69.60;;;;;;4954557;29;20201;-74
2022/05/24 13:41:45;;;;;;;1.88;1.63;;;23.20;69.40;;;;;;4955233;29;20023;-74
2022/05/24 13:44:30;;;;;;;2.00;1.70;;;23.20;69.20;;;;;;4954889;29;20074;-74
2022/05/24 13:47:23;;;;;;;2.85;1.58;;;23.20;69.00;;;;;;4955225;29;20349;-73
2022/05/24 13:49:49;;;;;;;2.63;1.52;;;23.30;69.20;;;;;;4955298;29;20031;-75
2022/05/24 13:52:38;;;;;;;2.10;1.63;;;23.30;69.40;;;;;;4953306;29;20028;-75
2022/05/24 13:55:18;;;;;;;3.35;1.83;;;23.30;69.40;;;;;;4954524;29;20039;-75
2022/05/24 13:57:54;;;;;;;1.93;1.63;;;23.40;69.50;;;;;;4954943;29;20031;-74